sensor_id;sensor_type;location;lat;lon;timestamp;temperature;humidity
32366;DHT22;18837;46.832;16.838;2022-11-06T00:01:13;11.80;91.20
32366;DHT22;18837;46.832;16.838;2022-11-06T00:03:40;11.80;91.50
32366;DHT22;18837;46.832;16.838;2022-11-06T00:06:11;11.80;91.10
32366;DHT22;18837;46.832;16.838;2022-11-06T00:08:58;11.80;94.00
32366;DHT22;18837;46.832;16.838;2022-11-06T00:11:24;11.80;91.20
32366;DHT22;18837;46.832;16.838;2022-11-06T00:13:49;11.80;91.10
32366;DHT22;18837;46.832;16.838;2022-11-06T00:16:17;11.80;91.30
32366;DHT22;18837;46.832;16.838;2022-11-06T00:18:43;11.80;91.00
32366;DHT22;18837;46.832;16.838;2022-11-06T00:21:25;11.80;91.20
32366;DHT22;18837;46.832;16.838;2022-11-06T00:23:52;11.80;94.00
32366;DHT22;18837;46.832;16.838;2022-11-06T00:26:21;11.80;91.10
32366;DHT22;18837;46.832;16.838;2022-11-06T00:28:47;11.80;90.90
32366;DHT22;18837;46.832;16.838;2022-11-06T00:31:17;11.80;91.10
32366;DHT22;18837;46.832;16.838;2022-11-06T00:33:43;11.80;91.00
32366;DHT22;18837;46.832;16.838;2022-11-06T00:36:14;11.80;91.20
32366;DHT22;18837;46.832;16.838;2022-11-06T00:38:40;11.70;93.20
32366;DHT22;18837;46.832;16.838;2022-11-06T00:41:08;11.70;91.20
32366;DHT22;18837;46.832;16.838;2022-11-06T00:43:36;11.80;91.10
32366;DHT22;18837;46.832;16.838;2022-11-06T00:46:02;11.70;91.20
32366;DHT22;18837;46.832;16.838;2022-11-06T00:48:28;11.70;91.10
32366;DHT22;18837;46.832;16.838;2022-11-06T00:50:54;11.70;91.30
32366;DHT22;18837;46.832;16.838;2022-11-06T00:53:19;11.80;91.30
32366;DHT22;18837;46.832;16.838;2022-11-06T00:55:45;11.80;91.20
32366;DHT22;18837;46.832;16.838;2022-11-06T00:58:11;11.80;91.30
32366;DHT22;18837;46.832;16.838;2022-11-06T01:00:36;11.80;91.20
32366;DHT22;18837;46.832;16.838;2022-11-06T01:03:02;11.80;91.20
32366;DHT22;18837;46.832;16.838;2022-11-06T01:05:27;11.80;91.10
32366;DHT22;18837;46.832;16.838;2022-11-06T01:07:53;11.80;91.00
32366;DHT22;18837;46.832;16.838;2022-11-06T01:10:19;11.80;91.00
32366;DHT22;18837;46.832;16.838;2022-11-06T01:12:45;11.80;91.00
32366;DHT22;18837;46.832;16.838;2022-11-06T01:15:10;11.80;91.70
32366;DHT22;18837;46.832;16.838;2022-11-06T01:17:36;11.80;91.00
32366;DHT22;18837;46.832;16.838;2022-11-06T01:20:03;11.80;91.10
32366;DHT22;18837;46.832;16.838;2022-11-06T01:22:29;11.70;91.40
32366;DHT22;18837;46.832;16.838;2022-11-06T01:24:54;11.70;91.00
32366;DHT22;18837;46.832;16.838;2022-11-06T01:27:20;11.70;91.20
32366;DHT22;18837;46.832;16.838;2022-11-06T01:29:46;11.70;91.00
32366;DHT22;18837;46.832;16.838;2022-11-06T01:32:11;11.70;91.00
32366;DHT22;18837;46.832;16.838;2022-11-06T01:34:37;11.70;91.10
32366;DHT22;18837;46.832;16.838;2022-11-06T01:37:03;11.70;91.10
32366;DHT22;18837;46.832;16.838;2022-11-06T01:39:29;11.70;91.20
32366;DHT22;18837;46.832;16.838;2022-11-06T01:41:55;11.70;91.10
32366;DHT22;18837;46.832;16.838;2022-11-06T01:47:27;11.70;93.60
32366;DHT22;18837;46.832;16.838;2022-11-06T01:50:00;11.70;93.80
32366;DHT22;18837;46.832;16.838;2022-11-06T01:52:28;11.70;90.90
32366;DHT22;18837;46.832;16.838;2022-11-06T01:55:05;11.70;91.00
32366;DHT22;18837;46.832;16.838;2022-11-06T01:57:31;11.70;90.80
32366;DHT22;18837;46.832;16.838;2022-11-06T01:59:56;11.70;90.80
32366;DHT22;18837;46.832;16.838;2022-11-06T02:02:22;11.80;90.90
32366;DHT22;18837;46.832;16.838;2022-11-06T02:04:48;11.80;90.90
32366;DHT22;18837;46.832;16.838;2022-11-06T02:07:16;11.70;91.00
32366;DHT22;18837;46.832;16.838;2022-11-06T02:09:41;11.70;90.90
32366;DHT22;18837;46.832;16.838;2022-11-06T02:12:15;11.70;91.10
32366;DHT22;18837;46.832;16.838;2022-11-06T02:25:57;11.70;91.00
32366;DHT22;18837;46.832;16.838;2022-11-06T02:29:03;11.70;93.80
32366;DHT22;18837;46.832;16.838;2022-11-06T02:31:33;11.70;93.60
32366;DHT22;18837;46.832;16.838;2022-11-06T02:34:07;11.70;90.90
32366;DHT22;18837;46.832;16.838;2022-11-06T02:36:38;11.60;91.00
32366;DHT22;18837;46.832;16.838;2022-11-06T02:39:09;11.60;91.00
32366;DHT22;18837;46.832;16.838;2022-11-06T02:41:41;11.70;91.00
32366;DHT22;18837;46.832;16.838;2022-11-06T02:44:11;11.70;91.10
32366;DHT22;18837;46.832;16.838;2022-11-06T02:46:40;11.70;91.00
32366;DHT22;18837;46.832;16.838;2022-11-06T02:49:16;11.70;91.00
32366;DHT22;18837;46.832;16.838;2022-11-06T02:51:47;11.70;91.00
32366;DHT22;18837;46.832;16.838;2022-11-06T02:54:15;11.70;91.00
32366;DHT22;18837;46.832;16.838;2022-11-06T02:56:45;11.70;91.00
32366;DHT22;18837;46.832;16.838;2022-11-06T02:59:19;11.70;90.90
32366;DHT22;18837;46.832;16.838;2022-11-06T03:01:52;11.70;91.00
32366;DHT22;18837;46.832;16.838;2022-11-06T03:07:38;11.70;93.60
32366;DHT22;18837;46.832;16.838;2022-11-06T03:10:06;11.70;93.30
32366;DHT22;18837;46.832;16.838;2022-11-06T03:12:54;11.70;91.50
32366;DHT22;18837;46.832;16.838;2022-11-06T03:15:52;11.60;93.20
32366;DHT22;18837;46.832;16.838;2022-11-06T03:21:17;11.60;91.60
32366;DHT22;18837;46.832;16.838;2022-11-06T03:24:00;11.60;90.90
32366;DHT22;18837;46.832;16.838;2022-11-06T03:26:42;11.60;90.90
32366;DHT22;18837;46.832;16.838;2022-11-06T03:29:27;11.60;91.00
32366;DHT22;18837;46.832;16.838;2022-11-06T03:34:52;11.60;94.20
32366;DHT22;18837;46.832;16.838;2022-11-06T03:37:25;11.60;93.40
32366;DHT22;18837;46.832;16.838;2022-11-06T03:39:54;11.60;91.20
32366;DHT22;18837;46.832;16.838;2022-11-06T03:42:26;11.60;90.90
32366;DHT22;18837;46.832;16.838;2022-11-06T03:44:59;11.60;90.90
32366;DHT22;18837;46.832;16.838;2022-11-06T03:50:35;11.70;93.10
32366;DHT22;18837;46.832;16.838;2022-11-06T03:53:11;11.60;90.80
32366;DHT22;18837;46.832;16.838;2022-11-06T03:55:45;11.60;90.90
32366;DHT22;18837;46.832;16.838;2022-11-06T03:58:17;11.60;93.30
32366;DHT22;18837;46.832;16.838;2022-11-06T04:00:46;11.60;90.80
32366;DHT22;18837;46.832;16.838;2022-11-06T04:03:26;11.60;90.90
32366;DHT22;18837;46.832;16.838;2022-11-06T04:05:59;11.60;93.60
32366;DHT22;18837;46.832;16.838;2022-11-06T04:08:27;11.60;91.00
32366;DHT22;18837;46.832;16.838;2022-11-06T04:11:17;11.60;90.90
32366;DHT22;18837;46.832;16.838;2022-11-06T04:14:03;11.60;91.00
32366;DHT22;18837;46.832;16.838;2022-11-06T04:16:40;11.60;90.90
32366;DHT22;18837;46.832;16.838;2022-11-06T04:19:33;11.60;93.50
32366;DHT22;18837;46.832;16.838;2022-11-06T04:22:20;11.60;91.20
32366;DHT22;18837;46.832;16.838;2022-11-06T04:28:18;11.60;93.50
32366;DHT22;18837;46.832;16.838;2022-11-06T04:31:11;11.60;91.00
32366;DHT22;18837;46.832;16.838;2022-11-06T04:33:56;11.60;93.60
32366;DHT22;18837;46.832;16.838;2022-11-06T04:39:13;11.60;93.30
32366;DHT22;18837;46.832;16.838;2022-11-06T04:42:04;11.60;93.50
32366;DHT22;18837;46.832;16.838;2022-11-06T04:44:51;11.60;93.50
32366;DHT22;18837;46.832;16.838;2022-11-06T04:47:21;11.60;93.70
32366;DHT22;18837;46.832;16.838;2022-11-06T04:49:51;11.60;90.90
32366;DHT22;18837;46.832;16.838;2022-11-06T04:52:20;11.60;91.00
32366;DHT22;18837;46.832;16.838;2022-11-06T04:54:48;11.60;90.90
32366;DHT22;18837;46.832;16.838;2022-11-06T04:57:14;11.60;90.80
32366;DHT22;18837;46.832;16.838;2022-11-06T04:59:39;11.60;91.00
32366;DHT22;18837;46.832;16.838;2022-11-06T05:02:06;11.60;91.00
32366;DHT22;18837;46.832;16.838;2022-11-06T05:04:31;11.60;90.90
32366;DHT22;18837;46.832;16.838;2022-11-06T05:06:58;11.60;91.00
32366;DHT22;18837;46.832;16.838;2022-11-06T05:09:23;11.60;91.10
32366;DHT22;18837;46.832;16.838;2022-11-06T05:11:50;11.50;91.10
32366;DHT22;18837;46.832;16.838;2022-11-06T05:14:15;11.60;91.50
32366;DHT22;18837;46.832;16.838;2022-11-06T05:16:41;11.60;91.10
32366;DHT22;18837;46.832;16.838;2022-11-06T05:19:08;11.60;91.10
32366;DHT22;18837;46.832;16.838;2022-11-06T05:21:37;11.50;91.10
32366;DHT22;18837;46.832;16.838;2022-11-06T05:24:21;11.60;92.40
32366;DHT22;18837;46.832;16.838;2022-11-06T05:26:46;11.60;91.00
32366;DHT22;18837;46.832;16.838;2022-11-06T05:29:12;11.60;92.00
32366;DHT22;18837;46.832;16.838;2022-11-06T05:31:38;11.60;91.00
32366;DHT22;18837;46.832;16.838;2022-11-06T05:34:03;11.60;91.00
32366;DHT22;18837;46.832;16.838;2022-11-06T05:36:29;11.60;91.00
32366;DHT22;18837;46.832;16.838;2022-11-06T05:38:55;11.60;91.00
32366;DHT22;18837;46.832;16.838;2022-11-06T05:41:20;11.60;91.00
32366;DHT22;18837;46.832;16.838;2022-11-06T05:43:46;11.60;90.90
32366;DHT22;18837;46.832;16.838;2022-11-06T05:46:11;11.60;90.90
32366;DHT22;18837;46.832;16.838;2022-11-06T05:48:37;11.60;91.30
32366;DHT22;18837;46.832;16.838;2022-11-06T05:51:05;11.60;91.60
32366;DHT22;18837;46.832;16.838;2022-11-06T05:53:33;11.60;91.10
32366;DHT22;18837;46.832;16.838;2022-11-06T05:55:59;11.50;90.80
32366;DHT22;18837;46.832;16.838;2022-11-06T05:58:25;11.50;90.90
32366;DHT22;18837;46.832;16.838;2022-11-06T06:00:53;11.50;90.70
32366;DHT22;18837;46.832;16.838;2022-11-06T06:03:19;11.50;90.90
32366;DHT22;18837;46.832;16.838;2022-11-06T06:05:46;11.50;90.90
32366;DHT22;18837;46.832;16.838;2022-11-06T06:08:11;11.50;90.90
32366;DHT22;18837;46.832;16.838;2022-11-06T06:10:41;11.50;91.00
32366;DHT22;18837;46.832;16.838;2022-11-06T06:13:07;11.50;90.90
32366;DHT22;18837;46.832;16.838;2022-11-06T06:15:33;11.50;91.00
32366;DHT22;18837;46.832;16.838;2022-11-06T06:17:58;11.50;91.00
32366;DHT22;18837;46.832;16.838;2022-11-06T06:20:24;11.50;90.90
32366;DHT22;18837;46.832;16.838;2022-11-06T06:22:57;11.50;90.90
32366;DHT22;18837;46.832;16.838;2022-11-06T06:25:23;11.50;90.70
32366;DHT22;18837;46.832;16.838;2022-11-06T06:27:51;11.50;91.00
32366;DHT22;18837;46.832;16.838;2022-11-06T06:30:17;11.50;91.90
32366;DHT22;18837;46.832;16.838;2022-11-06T06:32:43;11.50;91.50
32366;DHT22;18837;46.832;16.838;2022-11-06T06:35:09;11.50;90.90
32366;DHT22;18837;46.832;16.838;2022-11-06T06:37:34;11.50;90.80
32366;DHT22;18837;46.832;16.838;2022-11-06T06:40:00;11.50;90.80
32366;DHT22;18837;46.832;16.838;2022-11-06T06:42:29;11.50;90.90
32366;DHT22;18837;46.832;16.838;2022-11-06T06:44:55;11.60;91.00
32366;DHT22;18837;46.832;16.838;2022-11-06T06:47:21;11.50;90.90
32366;DHT22;18837;46.832;16.838;2022-11-06T06:49:47;11.50;91.20
32366;DHT22;18837;46.832;16.838;2022-11-06T06:52:12;11.50;90.90
32366;DHT22;18837;46.832;16.838;2022-11-06T06:54:38;11.50;90.90
32366;DHT22;18837;46.832;16.838;2022-11-06T06:57:06;11.50;90.80
32366;DHT22;18837;46.832;16.838;2022-11-06T06:59:31;11.50;90.90
32366;DHT22;18837;46.832;16.838;2022-11-06T07:01:57;11.50;90.90
32366;DHT22;18837;46.832;16.838;2022-11-06T07:04:23;11.50;90.90
32366;DHT22;18837;46.832;16.838;2022-11-06T07:06:52;11.50;90.90
32366;DHT22;18837;46.832;16.838;2022-11-06T07:09:19;11.50;90.70
32366;DHT22;18837;46.832;16.838;2022-11-06T07:11:44;11.50;90.90
32366;DHT22;18837;46.832;16.838;2022-11-06T07:14:10;11.50;91.00
32366;DHT22;18837;46.832;16.838;2022-11-06T07:16:36;11.50;90.90
32366;DHT22;18837;46.832;16.838;2022-11-06T07:19:02;11.50;90.80
32366;DHT22;18837;46.832;16.838;2022-11-06T07:21:27;11.50;91.10
32366;DHT22;18837;46.832;16.838;2022-11-06T07:23:53;11.50;91.00
32366;DHT22;18837;46.832;16.838;2022-11-06T07:26:19;11.50;90.70
32366;DHT22;18837;46.832;16.838;2022-11-06T07:28:44;11.50;90.70
32366;DHT22;18837;46.832;16.838;2022-11-06T07:31:10;11.50;91.10
32366;DHT22;18837;46.832;16.838;2022-11-06T07:33:38;11.50;90.70
32366;DHT22;18837;46.832;16.838;2022-11-06T07:36:09;11.60;90.60
32366;DHT22;18837;46.832;16.838;2022-11-06T07:38:35;11.50;90.80
32366;DHT22;18837;46.832;16.838;2022-11-06T07:41:09;11.50;90.70
32366;DHT22;18837;46.832;16.838;2022-11-06T07:43:36;11.50;92.40
32366;DHT22;18837;46.832;16.838;2022-11-06T07:46:04;11.50;90.80
32366;DHT22;18837;46.832;16.838;2022-11-06T07:48:30;11.50;90.80
32366;DHT22;18837;46.832;16.838;2022-11-06T07:50:56;11.50;90.70
32366;DHT22;18837;46.832;16.838;2022-11-06T07:53:22;11.50;90.90
32366;DHT22;18837;46.832;16.838;2022-11-06T07:55:54;11.50;90.90
32366;DHT22;18837;46.832;16.838;2022-11-06T07:58:21;11.50;90.90
32366;DHT22;18837;46.832;16.838;2022-11-06T08:00:48;11.50;91.00
32366;DHT22;18837;46.832;16.838;2022-11-06T08:03:14;11.50;90.80
32366;DHT22;18837;46.832;16.838;2022-11-06T08:05:40;11.50;90.90
32366;DHT22;18837;46.832;16.838;2022-11-06T08:08:06;11.50;91.00
32366;DHT22;18837;46.832;16.838;2022-11-06T08:10:32;11.50;90.90
32366;DHT22;18837;46.832;16.838;2022-11-06T08:13:00;11.50;91.00
32366;DHT22;18837;46.832;16.838;2022-11-06T08:15:26;11.50;91.30
32366;DHT22;18837;46.832;16.838;2022-11-06T08:17:52;11.50;90.80
32366;DHT22;18837;46.832;16.838;2022-11-06T08:20:17;11.60;90.90
32366;DHT22;18837;46.832;16.838;2022-11-06T08:22:44;11.60;91.00
32366;DHT22;18837;46.832;16.838;2022-11-06T08:25:09;11.60;90.80
32366;DHT22;18837;46.832;16.838;2022-11-06T08:27:35;11.50;90.90
32366;DHT22;18837;46.832;16.838;2022-11-06T08:30:02;11.60;90.90
32366;DHT22;18837;46.832;16.838;2022-11-06T08:32:28;11.60;90.80
32366;DHT22;18837;46.832;16.838;2022-11-06T08:34:54;11.60;91.00
32366;DHT22;18837;46.832;16.838;2022-11-06T08:37:19;11.60;90.90
32366;DHT22;18837;46.832;16.838;2022-11-06T08:39:45;11.60;90.90
32366;DHT22;18837;46.832;16.838;2022-11-06T08:42:11;11.60;91.00
32366;DHT22;18837;46.832;16.838;2022-11-06T08:44:37;11.50;90.90
32366;DHT22;18837;46.832;16.838;2022-11-06T08:47:02;11.60;91.00
32366;DHT22;18837;46.832;16.838;2022-11-06T08:49:28;11.60;91.00
32366;DHT22;18837;46.832;16.838;2022-11-06T08:51:54;11.60;91.00
32366;DHT22;18837;46.832;16.838;2022-11-06T08:54:19;11.60;90.80
32366;DHT22;18837;46.832;16.838;2022-11-06T08:56:45;11.60;90.90
32366;DHT22;18837;46.832;16.838;2022-11-06T08:59:11;11.60;91.20
32366;DHT22;18837;46.832;16.838;2022-11-06T09:01:37;11.60;90.80
32366;DHT22;18837;46.832;16.838;2022-11-06T09:04:02;11.60;90.70
32366;DHT22;18837;46.832;16.838;2022-11-06T09:06:28;11.70;90.90
32366;DHT22;18837;46.832;16.838;2022-11-06T09:08:54;11.70;90.80
32366;DHT22;18837;46.832;16.838;2022-11-06T09:11:20;11.70;90.60
32366;DHT22;18837;46.832;16.838;2022-11-06T09:13:46;11.70;90.70
32366;DHT22;18837;46.832;16.838;2022-11-06T09:16:11;11.70;90.60
32366;DHT22;18837;46.832;16.838;2022-11-06T09:18:37;11.70;90.60
32366;DHT22;18837;46.832;16.838;2022-11-06T09:21:03;11.70;90.60
32366;DHT22;18837;46.832;16.838;2022-11-06T09:23:29;11.70;90.60
32366;DHT22;18837;46.832;16.838;2022-11-06T09:25:56;11.70;90.60
32366;DHT22;18837;46.832;16.838;2022-11-06T09:28:22;11.70;90.60
32366;DHT22;18837;46.832;16.838;2022-11-06T09:30:48;11.70;90.60
32366;DHT22;18837;46.832;16.838;2022-11-06T09:33:14;11.70;90.60
32366;DHT22;18837;46.832;16.838;2022-11-06T09:35:40;11.70;90.70
32366;DHT22;18837;46.832;16.838;2022-11-06T09:38:10;11.70;90.60
32366;DHT22;18837;46.832;16.838;2022-11-06T09:40:51;11.70;91.30
32366;DHT22;18837;46.832;16.838;2022-11-06T09:45:50;11.80;90.80
32366;DHT22;18837;46.832;16.838;2022-11-06T09:48:25;11.80;90.50
32366;DHT22;18837;46.832;16.838;2022-11-06T09:53:46;11.80;90.90
32366;DHT22;18837;46.832;16.838;2022-11-06T09:56:13;11.90;90.60
32366;DHT22;18837;46.832;16.838;2022-11-06T09:58:43;11.90;90.60
32366;DHT22;18837;46.832;16.838;2022-11-06T10:01:17;11.90;90.70
32366;DHT22;18837;46.832;16.838;2022-11-06T10:03:56;12.00;90.50
32366;DHT22;18837;46.832;16.838;2022-11-06T10:06:23;12.00;93.10
32366;DHT22;18837;46.832;16.838;2022-11-06T10:08:51;12.00;90.50
32366;DHT22;18837;46.832;16.838;2022-11-06T10:16:53;11.90;90.60
32366;DHT22;18837;46.832;16.838;2022-11-06T10:19:37;11.90;93.50
32366;DHT22;18837;46.832;16.838;2022-11-06T10:24:57;11.90;90.70
32366;DHT22;18837;46.832;16.838;2022-11-06T10:27:24;11.90;90.70
32366;DHT22;18837;46.832;16.838;2022-11-06T10:30:12;11.90;90.50
32366;DHT22;18837;46.832;16.838;2022-11-06T10:35:28;11.90;93.00
32366;DHT22;18837;46.832;16.838;2022-11-06T10:38:05;11.90;90.50
32366;DHT22;18837;46.832;16.838;2022-11-06T10:40:32;11.90;90.50
32366;DHT22;18837;46.832;16.838;2022-11-06T10:43:13;11.90;91.30
32366;DHT22;18837;46.832;16.838;2022-11-06T10:45:44;11.90;90.50
32366;DHT22;18837;46.832;16.838;2022-11-06T10:48:31;12.00;90.40
32366;DHT22;18837;46.832;16.838;2022-11-06T10:51:22;12.10;90.20
32366;DHT22;18837;46.832;16.838;2022-11-06T10:54:27;12.10;92.80
32366;DHT22;18837;46.832;16.838;2022-11-06T10:59:42;12.20;92.40
32366;DHT22;18837;46.832;16.838;2022-11-06T11:03:15;12.20;89.80
32366;DHT22;18837;46.832;16.838;2022-11-06T11:05:21;12.10;91.90
32366;DHT22;18837;46.832;16.838;2022-11-06T11:07:48;12.10;90.00
32366;DHT22;18837;46.832;16.838;2022-11-06T11:10:32;12.10;90.00
32366;DHT22;18837;46.832;16.838;2022-11-06T11:13:00;12.10;90.10
32366;DHT22;18837;46.832;16.838;2022-11-06T11:15:30;12.10;90.10
32366;DHT22;18837;46.832;16.838;2022-11-06T11:20:40;12.10;91.90
32366;DHT22;18837;46.832;16.838;2022-11-06T11:23:26;12.10;90.40
32366;DHT22;18837;46.832;16.838;2022-11-06T11:25:54;12.10;90.20
32366;DHT22;18837;46.832;16.838;2022-11-06T11:31:18;12.10;90.20
32366;DHT22;18837;46.832;16.838;2022-11-06T11:33:53;12.10;90.10
32366;DHT22;18837;46.832;16.838;2022-11-06T11:36:19;12.10;90.00
32366;DHT22;18837;46.832;16.838;2022-11-06T11:38:45;12.10;90.10
32366;DHT22;18837;46.832;16.838;2022-11-06T11:41:27;12.20;90.10
32366;DHT22;18837;46.832;16.838;2022-11-06T11:44:18;12.20;90.30
32366;DHT22;18837;46.832;16.838;2022-11-06T11:46:51;12.30;91.90
32366;DHT22;18837;46.832;16.838;2022-11-06T11:49:43;12.30;88.90
32366;DHT22;18837;46.832;16.838;2022-11-06T11:52:15;12.30;87.70
32366;DHT22;18837;46.832;16.838;2022-11-06T11:54:47;12.40;86.10
32366;DHT22;18837;46.832;16.838;2022-11-06T11:57:23;12.40;85.80
32366;DHT22;18837;46.832;16.838;2022-11-06T11:59:57;12.40;85.50
32366;DHT22;18837;46.832;16.838;2022-11-06T12:02:26;12.30;84.90
32366;DHT22;18837;46.832;16.838;2022-11-06T12:04:59;12.30;85.60
32366;DHT22;18837;46.832;16.838;2022-11-06T12:07:37;12.30;83.70
32366;DHT22;18837;46.832;16.838;2022-11-06T12:10:32;12.30;84.40
32366;DHT22;18837;46.832;16.838;2022-11-06T12:13:02;12.20;86.40
32366;DHT22;18837;46.832;16.838;2022-11-06T12:21:07;12.20;85.60
32366;DHT22;18837;46.832;16.838;2022-11-06T12:28:54;12.20;86.90
32366;DHT22;18837;46.832;16.838;2022-11-06T12:31:37;12.30;85.90
32366;DHT22;18837;46.832;16.838;2022-11-06T12:39:43;12.40;89.80
32366;DHT22;18837;46.832;16.838;2022-11-06T12:42:12;12.60;86.90
32366;DHT22;18837;46.832;16.838;2022-11-06T12:44:39;12.40;86.70
32366;DHT22;18837;46.832;16.838;2022-11-06T12:50:11;12.40;87.30
32366;DHT22;18837;46.832;16.838;2022-11-06T13:01:47;12.30;90.50
32366;DHT22;18837;46.832;16.838;2022-11-06T13:12:51;12.20;89.60
32366;DHT22;18837;46.832;16.838;2022-11-06T13:18:03;12.20;88.80
32366;DHT22;18837;46.832;16.838;2022-11-06T13:20:44;12.20;88.70
32366;DHT22;18837;46.832;16.838;2022-11-06T13:27:53;12.30;91.10
32366;DHT22;18837;46.832;16.838;2022-11-06T13:30:03;12.30;91.30
32366;DHT22;18837;46.832;16.838;2022-11-06T13:32:31;12.40;89.30
32366;DHT22;18837;46.832;16.838;2022-11-06T13:34:59;12.40;89.10
32366;DHT22;18837;46.832;16.838;2022-11-06T13:37:37;12.40;89.10
32366;DHT22;18837;46.832;16.838;2022-11-06T13:43:37;12.40;91.00
32366;DHT22;18837;46.832;16.838;2022-11-06T13:45:49;12.40;91.10
32366;DHT22;18837;46.832;16.838;2022-11-06T13:48:36;12.40;88.80
32366;DHT22;18837;46.832;16.838;2022-11-06T13:51:32;12.30;89.10
32366;DHT22;18837;46.832;16.838;2022-11-06T14:06:51;12.20;89.70
32366;DHT22;18837;46.832;16.838;2022-11-06T14:09:21;12.20;89.90
32366;DHT22;18837;46.832;16.838;2022-11-06T14:11:53;12.20;89.80
32366;DHT22;18837;46.832;16.838;2022-11-06T14:22:24;12.30;90.20
32366;DHT22;18837;46.832;16.838;2022-11-06T14:24:51;12.30;91.30
32366;DHT22;18837;46.832;16.838;2022-11-06T14:32:46;12.40;90.10
32366;DHT22;18837;46.832;16.838;2022-11-06T14:38:34;12.40;91.40
32366;DHT22;18837;46.832;16.838;2022-11-06T14:41:00;12.40;90.00
32366;DHT22;18837;46.832;16.838;2022-11-06T14:43:35;12.30;89.50
32366;DHT22;18837;46.832;16.838;2022-11-06T14:48:30;12.30;89.60
32366;DHT22;18837;46.832;16.838;2022-11-06T14:50:57;12.20;89.60
32366;DHT22;18837;46.832;16.838;2022-11-06T14:54:19;12.20;89.90
32366;DHT22;18837;46.832;16.838;2022-11-06T14:56:29;12.20;91.60
32366;DHT22;18837;46.832;16.838;2022-11-06T14:58:58;12.20;90.00
32366;DHT22;18837;46.832;16.838;2022-11-06T15:01:28;12.20;90.00
32366;DHT22;18837;46.832;16.838;2022-11-06T15:04:13;12.20;90.10
32366;DHT22;18837;46.832;16.838;2022-11-06T15:06:46;12.20;91.80
32366;DHT22;18837;46.832;16.838;2022-11-06T15:11:52;12.10;91.30
32366;DHT22;18837;46.832;16.838;2022-11-06T15:16:48;12.20;91.00
32366;DHT22;18837;46.832;16.838;2022-11-06T15:19:22;12.20;91.50
32366;DHT22;18837;46.832;16.838;2022-11-06T15:21:55;12.20;90.30
32366;DHT22;18837;46.832;16.838;2022-11-06T15:24:41;12.20;90.20
32366;DHT22;18837;46.832;16.838;2022-11-06T15:27:19;12.30;90.10
32366;DHT22;18837;46.832;16.838;2022-11-06T15:29:50;12.20;92.20
32366;DHT22;18837;46.832;16.838;2022-11-06T15:32:25;12.20;90.00
32366;DHT22;18837;46.832;16.838;2022-11-06T15:35:07;12.20;90.10
32366;DHT22;18837;46.832;16.838;2022-11-06T15:37:57;12.20;92.10
32366;DHT22;18837;46.832;16.838;2022-11-06T15:40:35;12.10;92.50
32366;DHT22;18837;46.832;16.838;2022-11-06T15:43:38;12.10;90.20
32366;DHT22;18837;46.832;16.838;2022-11-06T15:48:37;12.10;90.70
32366;DHT22;18837;46.832;16.838;2022-11-06T15:51:19;12.10;90.70
32366;DHT22;18837;46.832;16.838;2022-11-06T15:53:45;12.10;90.50
32366;DHT22;18837;46.832;16.838;2022-11-06T15:56:12;12.10;91.20
32366;DHT22;18837;46.832;16.838;2022-11-06T15:58:39;12.00;90.40
32366;DHT22;18837;46.832;16.838;2022-11-06T16:01:09;12.00;90.50
32366;DHT22;18837;46.832;16.838;2022-11-06T16:03:50;12.10;90.60
32366;DHT22;18837;46.832;16.838;2022-11-06T16:06:17;12.00;90.90
32366;DHT22;18837;46.832;16.838;2022-11-06T16:08:43;12.00;90.70
32366;DHT22;18837;46.832;16.838;2022-11-06T16:11:13;12.00;90.70
32366;DHT22;18837;46.832;16.838;2022-11-06T16:13:42;12.10;90.70
32366;DHT22;18837;46.832;16.838;2022-11-06T16:16:37;12.10;90.60
32366;DHT22;18837;46.832;16.838;2022-11-06T16:19:23;12.10;93.10
32366;DHT22;18837;46.832;16.838;2022-11-06T16:21:56;12.10;92.10
32366;DHT22;18837;46.832;16.838;2022-11-06T16:24:23;12.10;90.60
32366;DHT22;18837;46.832;16.838;2022-11-06T16:26:50;12.10;90.50
32366;DHT22;18837;46.832;16.838;2022-11-06T16:29:25;12.10;90.60
32366;DHT22;18837;46.832;16.838;2022-11-06T16:32:04;12.10;93.20
32366;DHT22;18837;46.832;16.838;2022-11-06T16:34:39;12.00;90.70
32366;DHT22;18837;46.832;16.838;2022-11-06T16:39:47;12.00;92.30
32366;DHT22;18837;46.832;16.838;2022-11-06T16:42:23;12.00;90.70
32366;DHT22;18837;46.832;16.838;2022-11-06T16:44:58;12.00;93.40
32366;DHT22;18837;46.832;16.838;2022-11-06T16:47:24;12.00;90.70
32366;DHT22;18837;46.832;16.838;2022-11-06T16:49:54;12.00;91.20
32366;DHT22;18837;46.832;16.838;2022-11-06T16:52:45;12.00;90.90
32366;DHT22;18837;46.832;16.838;2022-11-06T16:55:23;12.00;90.90
32366;DHT22;18837;46.832;16.838;2022-11-06T16:57:53;12.00;93.10
32366;DHT22;18837;46.832;16.838;2022-11-06T17:03:06;12.00;91.00
32366;DHT22;18837;46.832;16.838;2022-11-06T17:05:36;12.00;91.00
32366;DHT22;18837;46.832;16.838;2022-11-06T17:08:36;12.00;90.90
32366;DHT22;18837;46.832;16.838;2022-11-06T17:13:37;12.00;91.70
32366;DHT22;18837;46.832;16.838;2022-11-06T17:16:05;12.00;90.70
32366;DHT22;18837;46.832;16.838;2022-11-06T17:18:33;11.90;90.90
32366;DHT22;18837;46.832;16.838;2022-11-06T17:21:05;11.90;90.80
32366;DHT22;18837;46.832;16.838;2022-11-06T17:23:32;11.90;91.00
32366;DHT22;18837;46.832;16.838;2022-11-06T17:26:28;11.90;90.90
32366;DHT22;18837;46.832;16.838;2022-11-06T17:28:56;11.90;93.70
32366;DHT22;18837;46.832;16.838;2022-11-06T17:31:22;11.80;90.90
32366;DHT22;18837;46.832;16.838;2022-11-06T17:33:49;11.90;91.00
32366;DHT22;18837;46.832;16.838;2022-11-06T17:36:23;11.80;90.90
32366;DHT22;18837;46.832;16.838;2022-11-06T17:38:53;11.80;91.00
32366;DHT22;18837;46.832;16.838;2022-11-06T17:41:19;11.80;90.80
32366;DHT22;18837;46.832;16.838;2022-11-06T17:46:26;11.70;91.10
32366;DHT22;18837;46.832;16.838;2022-11-06T17:48:53;11.70;90.90
32366;DHT22;18837;46.832;16.838;2022-11-06T17:51:19;11.70;90.90
32366;DHT22;18837;46.832;16.838;2022-11-06T17:54:10;11.70;92.20
32366;DHT22;18837;46.832;16.838;2022-11-06T17:56:36;11.70;91.10
32366;DHT22;18837;46.832;16.838;2022-11-06T17:59:07;11.70;91.40
32366;DHT22;18837;46.832;16.838;2022-11-06T18:01:35;11.70;91.00
32366;DHT22;18837;46.832;16.838;2022-11-06T18:04:13;11.70;91.90
32366;DHT22;18837;46.832;16.838;2022-11-06T18:06:39;11.70;91.70
32366;DHT22;18837;46.832;16.838;2022-11-06T18:09:06;11.70;91.00
32366;DHT22;18837;46.832;16.838;2022-11-06T18:11:32;11.70;91.10
32366;DHT22;18837;46.832;16.838;2022-11-06T18:13:58;11.70;90.90